createdAt,value
2022-08-05T00:00:46.532Z,0
2022-08-05T00:10:12.966Z,0
2022-08-05T00:29:27.548Z,0
2022-08-05T00:39:04.877Z,0
2022-08-05T00:48:50.911Z,0
2022-08-05T00:58:19.371Z,0
2022-08-05T01:08:29.971Z,0
2022-08-05T01:17:39.847Z,0
2022-08-05T01:27:17.559Z,0
2022-08-05T01:56:04.377Z,0
2022-08-05T02:15:17.337Z,0
2022-08-05T02:24:52.392Z,0
2022-08-05T02:34:29.696Z,0
2022-08-05T02:53:44.626Z,0
2022-08-05T03:03:23.495Z,0
2022-08-05T03:32:14.602Z,0
2022-08-05T03:41:52.594Z,0
2022-08-05T03:52:35.977Z,0
2022-08-05T04:01:08.309Z,0
2022-08-05T04:10:46.566Z,0
2022-08-05T04:20:24.721Z,0
2022-08-05T04:30:03.674Z,0
2022-08-05T04:39:41.185Z,0
2022-08-05T04:49:24.828Z,0
2022-08-05T04:58:58.071Z,0
2022-08-05T05:08:36.802Z,0
2022-08-05T05:18:14.772Z,0
2022-08-05T05:56:43.653Z,0
2022-08-05T06:06:21.270Z,0
2022-08-05T06:16:28.077Z,0
2022-08-05T06:26:00.283Z,0
2022-08-05T06:35:21.974Z,0
2022-08-05T06:44:54.335Z,0
2022-08-05T06:54:31.401Z,0
2022-08-05T07:04:10.311Z,1
2022-08-05T07:13:58.629Z,1
2022-08-05T07:23:29.655Z,0
2022-08-05T07:33:09.171Z,1
2022-08-05T07:42:45.890Z,1
2022-08-05T08:02:03.319Z,1
2022-08-05T08:11:47.721Z,1
2022-08-05T08:21:19.009Z,1
2022-08-05T08:30:59.491Z,1
2022-08-05T08:40:37.655Z,1
2022-08-05T08:50:32.179Z,1
2022-08-05T08:59:52.713Z,1
2022-08-05T09:09:32.572Z,1
2022-08-05T09:19:12.035Z,1
2022-08-05T09:28:51.574Z,1
2022-08-05T09:38:30.044Z,1
2022-08-05T09:48:18.648Z,1
2022-08-05T09:57:58.501Z,1
2022-08-05T10:08:11.523Z,4
2022-08-05T10:17:36.984Z,4
2022-08-05T10:36:44.115Z,1
2022-08-05T10:46:13.114Z,4
2022-08-05T10:56:03.924Z,5
2022-08-05T11:05:37.041Z,4
2022-08-05T11:15:12.035Z,4
2022-08-05T11:25:16.752Z,7
2022-08-05T11:34:39.170Z,5
2022-08-05T11:44:21.486Z,6
2022-08-05T11:53:48.400Z,2
2022-08-05T12:03:23.689Z,1
2022-08-05T12:31:54.175Z,1
2022-08-05T12:51:18.926Z,1
2022-08-05T13:10:30.139Z,1
2022-08-05T13:20:06.321Z,1
2022-08-05T13:29:59.747Z,2
2022-08-05T13:40:14.926Z,3
2022-08-05T13:49:13.042Z,1
2022-08-05T13:58:44.751Z,2
2022-08-05T14:08:43.122Z,4
2022-08-05T14:18:05.874Z,4
2022-08-05T14:27:47.465Z,4
2022-08-05T14:37:20.814Z,1
2022-08-05T14:46:56.665Z,1
2022-08-05T14:56:36.187Z,4
2022-08-05T15:15:56.551Z,1
2022-08-05T15:25:23.345Z,1
2022-08-05T15:34:52.755Z,1
2022-08-05T15:44:28.235Z,1
2022-08-05T16:22:53.572Z,1
2022-08-05T16:42:13.080Z,0
2022-08-05T16:51:42.498Z,0
2022-08-05T17:01:15.134Z,0
2022-08-05T17:10:51.124Z,0
2022-08-05T17:20:27.580Z,0
2022-08-05T17:30:03.372Z,0
2022-08-05T17:49:17.099Z,0
2022-08-05T18:18:10.803Z,0
2022-08-05T18:27:52.170Z,0
2022-08-05T18:37:33.869Z,0
2022-08-05T18:46:58.539Z,0
2022-08-05T18:56:36.723Z,0
2022-08-05T19:06:19.378Z,0
2022-08-05T19:15:58.481Z,0
2022-08-05T19:25:29.769Z,0
2022-08-05T19:35:05.578Z,0
2022-08-05T19:44:44.776Z,0
2022-08-05T19:54:22.966Z,0
2022-08-05T20:03:53.196Z,0
2022-08-05T20:13:30.415Z,0
2022-08-05T20:23:05.457Z,0
2022-08-05T20:32:45.272Z,0
2022-08-05T20:42:21.505Z,0
2022-08-05T20:51:55.982Z,0
2022-08-05T21:01:37.283Z,0
2022-08-05T21:11:11.768Z,0
2022-08-05T21:20:47.884Z,0
2022-08-05T21:30:25.370Z,0
2022-08-05T21:40:02.894Z,0
2022-08-05T21:49:48.703Z,0
2022-08-05T22:08:53.506Z,0
2022-08-05T22:18:30.140Z,0
2022-08-05T22:28:10.112Z,0
2022-08-05T22:37:57.999Z,0
2022-08-05T22:47:28.768Z,0
2022-08-05T23:06:34.121Z,0
2022-08-05T23:16:11.174Z,0
2022-08-05T23:25:50.432Z,0
2022-08-05T23:35:25.520Z,0
